createdAt,value
2023-05-10T09:14:06.898Z,1002.69
2023-05-10T09:17:28.292Z,1002.77
2023-05-10T09:21:01.932Z,1002.74
2023-05-10T09:22:01.911Z,1002.72
2023-05-10T09:23:01.872Z,1002.77
2023-05-10T10:11:38.406Z,1003.05
2023-05-10T10:12:38.371Z,1003.05
2023-05-10T10:13:38.339Z,1003.03
2023-05-10T10:14:38.330Z,1003.05
2023-05-10T10:15:38.357Z,1003.06
2023-05-10T10:16:45.836Z,1003.05
2023-05-10T10:17:38.361Z,1003.04
2023-05-10T10:18:38.323Z,1003.02
2023-05-10T10:19:38.480Z,1003.06
2023-05-10T10:20:38.254Z,1003.08
2023-05-10T10:21:38.233Z,1003.09
2023-05-10T10:22:38.228Z,1003.07
2023-05-10T10:31:00.019Z,1003.13
2023-05-10T10:31:59.977Z,1003.12
2023-05-10T10:33:55.000Z,1003.06
2023-05-10T10:34:55.003Z,1003.08
2023-05-10T10:35:54.982Z,1003.11
2023-05-10T10:36:54.956Z,1003.12
2023-05-10T10:37:54.935Z,1003.14
2023-05-10T10:38:54.949Z,1003.08
2023-05-10T10:39:54.929Z,1003.07
2023-05-10T10:40:54.905Z,1003.08
2023-05-10T10:41:54.912Z,1003.09
2023-05-10T10:42:54.884Z,1003.11
2023-05-10T10:43:54.880Z,1003.06
2023-05-10T10:44:54.871Z,1003.04
2023-05-10T10:45:54.853Z,1003.00
2023-05-10T10:46:54.896Z,1003.05
2023-05-10T10:47:54.920Z,1003.07
2023-05-10T10:48:54.822Z,1003.07
2023-05-10T10:49:54.782Z,1003.08
2023-05-10T10:50:54.779Z,1003.11
2023-05-10T10:51:54.803Z,1003.10
2023-05-10T10:52:54.813Z,1003.11
2023-05-10T10:53:54.751Z,1003.15
2023-05-10T10:54:54.733Z,1003.18
2023-05-10T10:55:54.713Z,1003.10
2023-05-10T10:56:54.770Z,1003.14
2023-05-10T10:57:54.718Z,1003.14
2023-05-10T10:58:54.813Z,1003.12
2023-05-10T10:59:54.698Z,1003.14
2023-05-10T11:00:54.716Z,1003.11
2023-05-10T11:01:54.649Z,1003.16
2023-05-10T11:02:54.680Z,1003.16
2023-05-10T11:03:54.709Z,1003.14
2023-05-10T11:04:54.649Z,1003.07
2023-05-10T12:31:00.848Z,1003.51
2023-05-10T12:32:00.890Z,1003.51
2023-05-10T12:33:00.828Z,1003.50
2023-05-10T12:34:00.772Z,1003.50
2023-05-10T12:35:00.756Z,1003.50
2023-05-10T12:36:00.727Z,1003.50
2023-05-10T12:37:00.719Z,1003.47
2023-05-10T12:38:00.708Z,1003.49
2023-05-10T12:39:00.678Z,1003.49
2023-05-10T15:29:33.173Z,1003.92
2023-05-10T15:30:33.127Z,1003.95
2023-05-10T15:31:33.131Z,1003.99
2023-05-10T15:32:33.099Z,1003.99
2023-05-10T15:33:33.061Z,1003.87
2023-05-10T15:34:34.931Z,1003.87
2023-05-10T15:39:21.145Z,1003.91
2023-05-10T15:40:21.095Z,1004.05
2023-05-10T15:41:21.128Z,1004.10
2023-05-10T15:42:21.097Z,1004.28
2023-05-10T15:43:21.077Z,1004.54
2023-05-10T15:44:21.056Z,1004.69
2023-05-10T15:45:21.057Z,1004.16
2023-05-10T15:46:21.075Z,1003.93
2023-05-10T15:47:21.036Z,1004.86
2023-05-10T15:48:20.999Z,1004.90
2023-05-10T15:49:20.969Z,1004.96
2023-05-10T15:50:20.957Z,1005.08
2023-05-10T15:51:20.953Z,1005.13
2023-05-10T15:52:20.935Z,1005.08
2023-05-10T15:53:20.939Z,1005.08
2023-05-10T15:54:20.931Z,1004.35
2023-05-10T15:55:20.937Z,1004.04
2023-05-10T15:56:20.895Z,1004.02
2023-05-10T15:57:20.905Z,1004.02
2023-05-10T15:58:20.908Z,1004.01
2023-05-10T15:59:20.895Z,1003.98
2023-05-10T16:00:20.886Z,1003.96
2023-05-10T16:01:20.911Z,1003.98
2023-05-10T16:02:20.946Z,1004.01
2023-05-10T16:03:20.869Z,1003.94
2023-05-10T16:21:52.982Z,1004.11
2023-05-10T16:22:52.876Z,1004.22
2023-05-10T16:23:52.860Z,1004.06
2023-05-10T16:24:52.862Z,1003.97
2023-05-10T16:25:52.853Z,1004.13
2023-05-10T16:26:52.816Z,1004.28
2023-05-10T16:27:52.821Z,1004.32
2023-05-10T16:28:52.861Z,1004.35
2023-05-10T16:29:52.803Z,1004.34
2023-05-10T16:30:53.075Z,1004.33
2023-05-10T16:31:52.792Z,1004.34
2023-05-10T16:32:52.837Z,1004.34
2023-05-10T16:33:52.767Z,1004.22
2023-05-10T16:34:52.759Z,1004.20
2023-05-10T16:35:52.743Z,1004.24
2023-05-10T16:36:52.734Z,1004.22
2023-05-10T16:37:52.707Z,1004.07
2023-05-10T16:38:52.724Z,1004.11
2023-05-10T16:39:52.718Z,1004.15
2023-05-10T16:40:52.708Z,1004.14
2023-05-10T16:44:04.895Z,1004.21
2023-05-10T16:45:04.945Z,1004.18
2023-05-10T16:46:11.935Z,1004.13
2023-05-10T16:47:04.880Z,1004.18
2023-05-10T16:48:04.889Z,1004.21
